Terminal Aerodrome Forecast
Issued by NWS Twin Cities, MN

Home | Current Version | Previous Version | Graphics & Text | Print | Product List | Glossary On
Versions: 1 2 3 4 5 6 7 8 9 10 11 12 13 14 15 16 17 18 19 20 21 22 23 24 25 26 27 28
000
FTUS43 KMPX 231100 RRA
TAFMSP
TAF
KMSP 231141Z 2312/2418 03012KT 6SM BR OVC010
      TEMPO 2312/2315 5SM -SNDZ OVC008
     FM231500 01012KT 1 1/2SM -SN BR OVC006
     FM232000 35012KT 4SM -SN BR OVC006
     FM240600 33012KT 6SM BR OVC008=

USA.gov is the U.S. government's official web portal to all federal, state and local government web resources and services.